sensor_id;sensor_type;location;lat;lon;timestamp;P1;durP1;ratioP1;P2;durP2;ratioP2
75062;SDS011;63981;51.052;13.754;2023-01-29T00:02:23;9.88;;;5.80;;
75062;SDS011;63981;51.052;13.754;2023-01-29T00:04:48;8.20;;;4.78;;
75062;SDS011;63981;51.052;13.754;2023-01-29T00:07:14;6.68;;;4.80;;
75062;SDS011;63981;51.052;13.754;2023-01-29T00:09:40;7.18;;;4.88;;
75062;SDS011;63981;51.052;13.754;2023-01-29T00:12:06;6.88;;;4.45;;
75062;SDS011;63981;51.052;13.754;2023-01-29T00:14:33;7.55;;;4.43;;
75062;SDS011;63981;51.052;13.754;2023-01-29T00:16:59;7.80;;;4.35;;
75062;SDS011;63981;51.052;13.754;2023-01-29T00:19:26;8.43;;;5.22;;
75062;SDS011;63981;51.052;13.754;2023-01-29T00:21:51;7.07;;;5.05;;
75062;SDS011;63981;51.052;13.754;2023-01-29T00:24:17;7.32;;;4.15;;
75062;SDS011;63981;51.052;13.754;2023-01-29T00:26:43;8.27;;;4.93;;
75062;SDS011;63981;51.052;13.754;2023-01-29T00:29:09;7.60;;;4.57;;
75062;SDS011;63981;51.052;13.754;2023-01-29T00:31:35;6.53;;;4.13;;
75062;SDS011;63981;51.052;13.754;2023-01-29T00:34:01;7.50;;;4.82;;
75062;SDS011;63981;51.052;13.754;2023-01-29T00:36:27;8.85;;;4.97;;
75062;SDS011;63981;51.052;13.754;2023-01-29T00:38:53;8.52;;;5.38;;
75062;SDS011;63981;51.052;13.754;2023-01-29T00:41:24;7.00;;;4.75;;
75062;SDS011;63981;51.052;13.754;2023-01-29T00:44:11;10.88;;;5.03;;
75062;SDS011;63981;51.052;13.754;2023-01-29T00:46:56;8.80;;;4.95;;
75062;SDS011;63981;51.052;13.754;2023-01-29T00:49:22;7.95;;;4.95;;
75062;SDS011;63981;51.052;13.754;2023-01-29T00:51:49;7.75;;;4.45;;
75062;SDS011;63981;51.052;13.754;2023-01-29T00:54:35;6.20;;;4.57;;
75062;SDS011;63981;51.052;13.754;2023-01-29T00:57:01;8.55;;;5.43;;
75062;SDS011;63981;51.052;13.754;2023-01-29T00:59:28;7.15;;;4.35;;
75062;SDS011;63981;51.052;13.754;2023-01-29T01:01:54;8.52;;;4.97;;
75062;SDS011;63981;51.052;13.754;2023-01-29T01:04:39;9.25;;;5.05;;
75062;SDS011;63981;51.052;13.754;2023-01-29T01:07:05;6.57;;;5.10;;
75062;SDS011;63981;51.052;13.754;2023-01-29T01:09:33;7.88;;;5.25;;
75062;SDS011;63981;51.052;13.754;2023-01-29T01:12:18;7.35;;;4.78;;
75062;SDS011;63981;51.052;13.754;2023-01-29T01:14:43;7.60;;;4.90;;
75062;SDS011;63981;51.052;13.754;2023-01-29T01:17:12;8.43;;;5.18;;
75062;SDS011;63981;51.052;13.754;2023-01-29T01:19:39;7.68;;;5.15;;
75062;SDS011;63981;51.052;13.754;2023-01-29T01:22:05;7.97;;;5.18;;
75062;SDS011;63981;51.052;13.754;2023-01-29T01:24:31;9.95;;;5.70;;
75062;SDS011;63981;51.052;13.754;2023-01-29T01:26:57;10.07;;;5.82;;
75062;SDS011;63981;51.052;13.754;2023-01-29T01:29:23;10.20;;;5.95;;
75062;SDS011;63981;51.052;13.754;2023-01-29T01:31:49;9.02;;;5.50;;
75062;SDS011;63981;51.052;13.754;2023-01-29T01:34:15;9.73;;;5.63;;
75062;SDS011;63981;51.052;13.754;2023-01-29T01:36:41;7.78;;;5.30;;
75062;SDS011;63981;51.052;13.754;2023-01-29T01:39:07;9.20;;;5.90;;
75062;SDS011;63981;51.052;13.754;2023-01-29T01:41:32;9.68;;;5.90;;
75062;SDS011;63981;51.052;13.754;2023-01-29T01:43:59;11.07;;;5.85;;
75062;SDS011;63981;51.052;13.754;2023-01-29T01:46:27;9.88;;;6.38;;
75062;SDS011;63981;51.052;13.754;2023-01-29T01:48:57;10.73;;;6.10;;
75062;SDS011;63981;51.052;13.754;2023-01-29T01:51:28;10.30;;;7.10;;
75062;SDS011;63981;51.052;13.754;2023-01-29T01:56:31;9.25;;;6.05;;
75062;SDS011;63981;51.052;13.754;2023-01-29T01:59:14;9.02;;;6.45;;
75062;SDS011;63981;51.052;13.754;2023-01-29T02:01:43;10.35;;;6.45;;
75062;SDS011;63981;51.052;13.754;2023-01-29T02:04:16;10.18;;;6.68;;
75062;SDS011;63981;51.052;13.754;2023-01-29T02:07:06;8.73;;;6.93;;
75062;SDS011;63981;51.052;13.754;2023-01-29T02:09:54;9.85;;;6.45;;
75062;SDS011;63981;51.052;13.754;2023-01-29T02:12:25;11.88;;;7.18;;
75062;SDS011;63981;51.052;13.754;2023-01-29T02:15:14;12.00;;;6.75;;
75062;SDS011;63981;51.052;13.754;2023-01-29T02:17:40;10.55;;;7.00;;
75062;SDS011;63981;51.052;13.754;2023-01-29T02:23:13;10.60;;;7.82;;
75062;SDS011;63981;51.052;13.754;2023-01-29T02:31:08;13.75;;;7.72;;
75062;SDS011;63981;51.052;13.754;2023-01-29T02:39:32;11.68;;;6.80;;
75062;SDS011;63981;51.052;13.754;2023-01-29T02:42:27;10.07;;;6.82;;
75062;SDS011;63981;51.052;13.754;2023-01-29T02:50:18;11.48;;;8.15;;
75062;SDS011;63981;51.052;13.754;2023-01-29T02:52:58;11.52;;;7.75;;
75062;SDS011;63981;51.052;13.754;2023-01-29T02:55:48;11.20;;;7.35;;
75062;SDS011;63981;51.052;13.754;2023-01-29T02:58:21;10.77;;;7.25;;
75062;SDS011;63981;51.052;13.754;2023-01-29T03:00:49;10.65;;;7.93;;
75062;SDS011;63981;51.052;13.754;2023-01-29T03:03:19;10.57;;;7.60;;
75062;SDS011;63981;51.052;13.754;2023-01-29T03:08:21;10.55;;;6.68;;
75062;SDS011;63981;51.052;13.754;2023-01-29T03:11:03;12.50;;;8.02;;
75062;SDS011;63981;51.052;13.754;2023-01-29T03:19:03;11.00;;;7.47;;
75062;SDS011;63981;51.052;13.754;2023-01-29T03:21:38;12.98;;;8.55;;
75062;SDS011;63981;51.052;13.754;2023-01-29T03:24:27;10.73;;;6.93;;
75062;SDS011;63981;51.052;13.754;2023-01-29T03:27:33;13.02;;;7.38;;
75062;SDS011;63981;51.052;13.754;2023-01-29T03:30:26;11.45;;;7.53;;
75062;SDS011;63981;51.052;13.754;2023-01-29T03:33:27;11.10;;;7.15;;
75062;SDS011;63981;51.052;13.754;2023-01-29T03:36:02;11.60;;;7.30;;
75062;SDS011;63981;51.052;13.754;2023-01-29T03:43:44;9.27;;;6.55;;
75062;SDS011;63981;51.052;13.754;2023-01-29T03:51:48;8.77;;;6.25;;
75062;SDS011;63981;51.052;13.754;2023-01-29T04:05:37;11.43;;;6.40;;
75062;SDS011;63981;51.052;13.754;2023-01-29T04:08:23;9.02;;;6.18;;
75062;SDS011;63981;51.052;13.754;2023-01-29T04:10:53;8.48;;;5.93;;
75062;SDS011;63981;51.052;13.754;2023-01-29T04:13:24;10.52;;;6.55;;
75062;SDS011;63981;51.052;13.754;2023-01-29T04:15:53;9.65;;;5.72;;
75062;SDS011;63981;51.052;13.754;2023-01-29T04:18:49;11.98;;;6.75;;
75062;SDS011;63981;51.052;13.754;2023-01-29T04:21:20;10.75;;;6.75;;
75062;SDS011;63981;51.052;13.754;2023-01-29T04:23:47;12.65;;;6.55;;
75062;SDS011;63981;51.052;13.754;2023-01-29T04:26:24;8.38;;;6.43;;
75062;SDS011;63981;51.052;13.754;2023-01-29T04:29:46;10.10;;;6.65;;
75062;SDS011;63981;51.052;13.754;2023-01-29T04:32:06;10.43;;;6.85;;
75062;SDS011;63981;51.052;13.754;2023-01-29T04:43:34;9.52;;;6.18;;
75062;SDS011;63981;51.052;13.754;2023-01-29T04:46:25;10.85;;;6.53;;
75062;SDS011;63981;51.052;13.754;2023-01-29T04:52:21;8.57;;;6.25;;
75062;SDS011;63981;51.052;13.754;2023-01-29T04:55:08;10.80;;;7.00;;
75062;SDS011;63981;51.052;13.754;2023-01-29T04:58:03;11.75;;;7.63;;
75062;SDS011;63981;51.052;13.754;2023-01-29T05:00:30;12.15;;;7.60;;
75062;SDS011;63981;51.052;13.754;2023-01-29T05:03:01;10.38;;;6.57;;
75062;SDS011;63981;51.052;13.754;2023-01-29T05:05:28;11.35;;;7.53;;
75062;SDS011;63981;51.052;13.754;2023-01-29T05:07:55;12.52;;;6.75;;
75062;SDS011;63981;51.052;13.754;2023-01-29T05:10:22;10.50;;;6.25;;
75062;SDS011;63981;51.052;13.754;2023-01-29T05:13:00;12.10;;;7.60;;
75062;SDS011;63981;51.052;13.754;2023-01-29T05:15:35;10.57;;;6.20;;
75062;SDS011;63981;51.052;13.754;2023-01-29T05:18:04;13.07;;;8.02;;
75062;SDS011;63981;51.052;13.754;2023-01-29T05:20:37;11.43;;;7.38;;
75062;SDS011;63981;51.052;13.754;2023-01-29T05:23:07;12.07;;;7.82;;
75062;SDS011;63981;51.052;13.754;2023-01-29T05:25:43;12.35;;;7.70;;
75062;SDS011;63981;51.052;13.754;2023-01-29T05:28:09;9.68;;;7.22;;
75062;SDS011;63981;51.052;13.754;2023-01-29T05:30:41;10.32;;;7.10;;
75062;SDS011;63981;51.052;13.754;2023-01-29T05:35:42;10.63;;;7.30;;
75062;SDS011;63981;51.052;13.754;2023-01-29T05:38:08;13.00;;;8.30;;
75062;SDS011;63981;51.052;13.754;2023-01-29T05:40:34;11.25;;;7.25;;
75062;SDS011;63981;51.052;13.754;2023-01-29T05:43:00;11.20;;;6.97;;
75062;SDS011;63981;51.052;13.754;2023-01-29T05:45:26;11.90;;;8.35;;
75062;SDS011;63981;51.052;13.754;2023-01-29T05:47:58;9.80;;;7.20;;
75062;SDS011;63981;51.052;13.754;2023-01-29T05:50:25;11.05;;;7.55;;
75062;SDS011;63981;51.052;13.754;2023-01-29T05:52:55;13.82;;;9.10;;
75062;SDS011;63981;51.052;13.754;2023-01-29T05:55:21;13.43;;;7.80;;
75062;SDS011;63981;51.052;13.754;2023-01-29T05:57:47;10.82;;;7.78;;
75062;SDS011;63981;51.052;13.754;2023-01-29T06:00:13;11.90;;;7.93;;
75062;SDS011;63981;51.052;13.754;2023-01-29T06:02:40;11.82;;;8.05;;
75062;SDS011;63981;51.052;13.754;2023-01-29T06:05:05;12.27;;;7.70;;
75062;SDS011;63981;51.052;13.754;2023-01-29T06:07:32;11.93;;;7.68;;
75062;SDS011;63981;51.052;13.754;2023-01-29T06:09:58;16.65;;;10.43;;
75062;SDS011;63981;51.052;13.754;2023-01-29T06:12:23;12.93;;;8.30;;
75062;SDS011;63981;51.052;13.754;2023-01-29T06:14:51;13.93;;;7.55;;
75062;SDS011;63981;51.052;13.754;2023-01-29T06:17:16;12.30;;;7.93;;
75062;SDS011;63981;51.052;13.754;2023-01-29T06:19:42;11.95;;;8.05;;
75062;SDS011;63981;51.052;13.754;2023-01-29T06:22:08;11.80;;;7.80;;
75062;SDS011;63981;51.052;13.754;2023-01-29T06:24:34;12.90;;;7.75;;
75062;SDS011;63981;51.052;13.754;2023-01-29T06:26:59;12.20;;;8.00;;
75062;SDS011;63981;51.052;13.754;2023-01-29T06:29:25;10.90;;;7.40;;
75062;SDS011;63981;51.052;13.754;2023-01-29T06:31:51;10.82;;;7.43;;
75062;SDS011;63981;51.052;13.754;2023-01-29T06:34:17;12.80;;;8.20;;
75062;SDS011;63981;51.052;13.754;2023-01-29T06:36:43;10.98;;;7.82;;
75062;SDS011;63981;51.052;13.754;2023-01-29T06:39:08;12.77;;;7.63;;
75062;SDS011;63981;51.052;13.754;2023-01-29T06:41:34;13.23;;;7.50;;
75062;SDS011;63981;51.052;13.754;2023-01-29T06:44:00;11.93;;;7.75;;
75062;SDS011;63981;51.052;13.754;2023-01-29T06:46:26;13.05;;;8.75;;
75062;SDS011;63981;51.052;13.754;2023-01-29T06:48:51;11.02;;;7.28;;
75062;SDS011;63981;51.052;13.754;2023-01-29T06:51:17;11.93;;;7.28;;
75062;SDS011;63981;51.052;13.754;2023-01-29T06:53:43;12.95;;;7.70;;
75062;SDS011;63981;51.052;13.754;2023-01-29T06:56:08;9.50;;;6.22;;
75062;SDS011;63981;51.052;13.754;2023-01-29T06:58:35;11.93;;;8.00;;
75062;SDS011;63981;51.052;13.754;2023-01-29T07:01:03;13.68;;;8.05;;
75062;SDS011;63981;51.052;13.754;2023-01-29T07:03:30;10.32;;;7.78;;
75062;SDS011;63981;51.052;13.754;2023-01-29T07:05:56;13.15;;;7.45;;
75062;SDS011;63981;51.052;13.754;2023-01-29T07:08:21;11.75;;;7.78;;
75062;SDS011;63981;51.052;13.754;2023-01-29T07:10:47;12.93;;;8.10;;
75062;SDS011;63981;51.052;13.754;2023-01-29T07:13:14;11.57;;;6.65;;
75062;SDS011;63981;51.052;13.754;2023-01-29T07:15:40;13.57;;;7.60;;
75062;SDS011;63981;51.052;13.754;2023-01-29T07:18:07;11.20;;;7.68;;
75062;SDS011;63981;51.052;13.754;2023-01-29T07:20:39;9.93;;;6.85;;
75062;SDS011;63981;51.052;13.754;2023-01-29T07:23:13;12.23;;;8.00;;
75062;SDS011;63981;51.052;13.754;2023-01-29T07:25:39;10.63;;;7.40;;
75062;SDS011;63981;51.052;13.754;2023-01-29T07:28:05;10.45;;;7.38;;
75062;SDS011;63981;51.052;13.754;2023-01-29T07:30:31;7.95;;;6.55;;
75062;SDS011;63981;51.052;13.754;2023-01-29T07:33:01;9.90;;;6.72;;
75062;SDS011;63981;51.052;13.754;2023-01-29T07:35:34;11.23;;;6.70;;
75062;SDS011;63981;51.052;13.754;2023-01-29T07:38:01;10.93;;;7.10;;
75062;SDS011;63981;51.052;13.754;2023-01-29T07:40:27;9.73;;;6.85;;
75062;SDS011;63981;51.052;13.754;2023-01-29T07:42:56;11.77;;;7.50;;
75062;SDS011;63981;51.052;13.754;2023-01-29T07:45:27;10.98;;;7.57;;
75062;SDS011;63981;51.052;13.754;2023-01-29T07:47:54;9.52;;;7.00;;
75062;SDS011;63981;51.052;13.754;2023-01-29T07:50:21;9.65;;;7.30;;
75062;SDS011;63981;51.052;13.754;2023-01-29T07:52:48;8.90;;;6.90;;
75062;SDS011;63981;51.052;13.754;2023-01-29T07:55:14;10.32;;;6.93;;
75062;SDS011;63981;51.052;13.754;2023-01-29T07:57:40;10.10;;;6.60;;
75062;SDS011;63981;51.052;13.754;2023-01-29T08:00:06;9.50;;;6.70;;
75062;SDS011;63981;51.052;13.754;2023-01-29T08:02:38;10.07;;;7.10;;
75062;SDS011;63981;51.052;13.754;2023-01-29T08:05:04;8.23;;;6.38;;
75062;SDS011;63981;51.052;13.754;2023-01-29T08:07:29;11.98;;;7.00;;
75062;SDS011;63981;51.052;13.754;2023-01-29T08:09:55;10.85;;;7.43;;
75062;SDS011;63981;51.052;13.754;2023-01-29T08:12:21;10.55;;;6.85;;
75062;SDS011;63981;51.052;13.754;2023-01-29T09:12:58;9.75;;;6.57;;
75062;SDS011;63981;51.052;13.754;2023-01-29T09:15:24;9.55;;;6.70;;
75062;SDS011;63981;51.052;13.754;2023-01-29T09:17:51;9.75;;;6.55;;
75062;SDS011;63981;51.052;13.754;2023-01-29T09:20:18;10.77;;;6.97;;
75062;SDS011;63981;51.052;13.754;2023-01-29T09:22:44;11.35;;;7.45;;
75062;SDS011;63981;51.052;13.754;2023-01-29T09:25:11;10.88;;;7.53;;
75062;SDS011;63981;51.052;13.754;2023-01-29T09:27:37;9.70;;;7.20;;
75062;SDS011;63981;51.052;13.754;2023-01-29T09:30:04;10.82;;;7.65;;
75062;SDS011;63981;51.052;13.754;2023-01-29T09:32:32;10.40;;;6.85;;
75062;SDS011;63981;51.052;13.754;2023-01-29T09:34:59;9.70;;;7.68;;
75062;SDS011;63981;51.052;13.754;2023-01-29T09:37:24;10.85;;;7.60;;
75062;SDS011;63981;51.052;13.754;2023-01-29T09:39:50;9.48;;;7.28;;
75062;SDS011;63981;51.052;13.754;2023-01-29T09:42:23;8.80;;;6.50;;
75062;SDS011;63981;51.052;13.754;2023-01-29T09:45:04;8.90;;;6.93;;
75062;SDS011;63981;51.052;13.754;2023-01-29T09:47:40;9.90;;;6.68;;
75062;SDS011;63981;51.052;13.754;2023-01-29T09:50:07;9.30;;;7.18;;
75062;SDS011;63981;51.052;13.754;2023-01-29T09:53:01;10.18;;;7.60;;
75062;SDS011;63981;51.052;13.754;2023-01-29T09:55:41;10.30;;;6.95;;
75062;SDS011;63981;51.052;13.754;2023-01-29T09:58:13;11.32;;;7.13;;
75062;SDS011;63981;51.052;13.754;2023-01-29T10:09:49;10.75;;;7.55;;
75062;SDS011;63981;51.052;13.754;2023-01-29T10:26:59;10.05;;;7.07;;
75062;SDS011;63981;51.052;13.754;2023-01-29T10:29:26;9.43;;;6.90;;
75062;SDS011;63981;51.052;13.754;2023-01-29T10:31:56;9.77;;;7.38;;
75062;SDS011;63981;51.052;13.754;2023-01-29T10:34:30;9.50;;;6.55;;
75062;SDS011;63981;51.052;13.754;2023-01-29T10:37:00;9.73;;;7.50;;
75062;SDS011;63981;51.052;13.754;2023-01-29T10:39:38;10.30;;;7.57;;
75062;SDS011;63981;51.052;13.754;2023-01-29T10:42:16;9.85;;;7.13;;
75062;SDS011;63981;51.052;13.754;2023-01-29T10:44:59;8.40;;;7.30;;
75062;SDS011;63981;51.052;13.754;2023-01-29T10:50:38;9.02;;;7.13;;
75062;SDS011;63981;51.052;13.754;2023-01-29T10:56:14;8.82;;;6.78;;
75062;SDS011;63981;51.052;13.754;2023-01-29T10:59:00;13.50;;;7.30;;
75062;SDS011;63981;51.052;13.754;2023-01-29T11:01:30;9.63;;;6.85;;
75062;SDS011;63981;51.052;13.754;2023-01-29T11:03:57;11.63;;;7.95;;
75062;SDS011;63981;51.052;13.754;2023-01-29T11:14:41;9.75;;;6.97;;
75062;SDS011;63981;51.052;13.754;2023-01-29T11:17:18;7.80;;;5.65;;
75062;SDS011;63981;51.052;13.754;2023-01-29T11:19:46;11.82;;;6.95;;
75062;SDS011;63981;51.052;13.754;2023-01-29T11:22:15;8.63;;;6.68;;
75062;SDS011;63981;51.052;13.754;2023-01-29T11:24:41;9.30;;;7.35;;
75062;SDS011;63981;51.052;13.754;2023-01-29T11:27:41;8.30;;;6.60;;
75062;SDS011;63981;51.052;13.754;2023-01-29T11:30:04;11.02;;;6.65;;
75062;SDS011;63981;51.052;13.754;2023-01-29T11:32:33;9.82;;;6.80;;
75062;SDS011;63981;51.052;13.754;2023-01-29T11:37:34;10.13;;;7.05;;
75062;SDS011;63981;51.052;13.754;2023-01-29T11:40:50;10.60;;;7.78;;
75062;SDS011;63981;51.052;13.754;2023-01-29T11:42:52;8.00;;;6.70;;
75062;SDS011;63981;51.052;13.754;2023-01-29T11:45:30;9.48;;;6.47;;
75062;SDS011;63981;51.052;13.754;2023-01-29T11:47:58;12.82;;;7.22;;
75062;SDS011;63981;51.052;13.754;2023-01-29T11:50:28;9.55;;;6.55;;
75062;SDS011;63981;51.052;13.754;2023-01-29T11:52:59;9.73;;;6.40;;
75062;SDS011;63981;51.052;13.754;2023-01-29T11:55:35;8.70;;;6.50;;
75062;SDS011;63981;51.052;13.754;2023-01-29T12:00:46;10.15;;;6.55;;
75062;SDS011;63981;51.052;13.754;2023-01-29T12:03:18;8.82;;;6.85;;
75062;SDS011;63981;51.052;13.754;2023-01-29T12:08:43;9.82;;;6.43;;
75062;SDS011;63981;51.052;13.754;2023-01-29T12:11:26;11.10;;;7.47;;
75062;SDS011;63981;51.052;13.754;2023-01-29T12:14:01;8.93;;;6.68;;
75062;SDS011;63981;51.052;13.754;2023-01-29T12:16:34;10.82;;;7.35;;
75062;SDS011;63981;51.052;13.754;2023-01-29T12:22:18;9.65;;;6.18;;
75062;SDS011;63981;51.052;13.754;2023-01-29T12:25:06;11.20;;;7.15;;
75062;SDS011;63981;51.052;13.754;2023-01-29T12:27:50;9.43;;;7.07;;
75062;SDS011;63981;51.052;13.754;2023-01-29T12:33:24;8.23;;;6.85;;
75062;SDS011;63981;51.052;13.754;2023-01-29T12:36:15;8.52;;;6.10;;
75062;SDS011;63981;51.052;13.754;2023-01-29T12:38:46;10.63;;;7.38;;
75062;SDS011;63981;51.052;13.754;2023-01-29T12:44:02;9.52;;;6.93;;
75062;SDS011;63981;51.052;13.754;2023-01-29T12:46:53;8.32;;;6.22;;
75062;SDS011;63981;51.052;13.754;2023-01-29T12:49:29;9.98;;;6.75;;
75062;SDS011;63981;51.052;13.754;2023-01-29T12:54:30;8.82;;;6.35;;
75062;SDS011;63981;51.052;13.754;2023-01-29T12:57:01;10.50;;;6.65;;
75062;SDS011;63981;51.052;13.754;2023-01-29T12:59:44;9.57;;;6.35;;
75062;SDS011;63981;51.052;13.754;2023-01-29T13:02:20;10.10;;;6.03;;
75062;SDS011;63981;51.052;13.754;2023-01-29T13:04:55;7.97;;;6.10;;
75062;SDS011;63981;51.052;13.754;2023-01-29T13:07:27;9.75;;;6.18;;
75062;SDS011;63981;51.052;13.754;2023-01-29T13:10:01;11.27;;;6.57;;
75062;SDS011;63981;51.052;13.754;2023-01-29T13:12:36;8.95;;;6.32;;
75062;SDS011;63981;51.052;13.754;2023-01-29T13:17:57;9.20;;;6.05;;
75062;SDS011;63981;51.052;13.754;2023-01-29T13:20:42;10.35;;;6.38;;
75062;SDS011;63981;51.052;13.754;2023-01-29T13:23:14;10.75;;;7.13;;
75062;SDS011;63981;51.052;13.754;2023-01-29T13:28:20;9.27;;;6.57;;
75062;SDS011;63981;51.052;13.754;2023-01-29T13:33:32;7.25;;;5.65;;
75062;SDS011;63981;51.052;13.754;2023-01-29T13:35:58;11.98;;;6.25;;
75062;SDS011;63981;51.052;13.754;2023-01-29T13:38:28;8.07;;;5.78;;
75062;SDS011;63981;51.052;13.754;2023-01-29T13:40:59;10.07;;;6.68;;
75062;SDS011;63981;51.052;13.754;2023-01-29T13:43:32;9.20;;;6.00;;
75062;SDS011;63981;51.052;13.754;2023-01-29T13:46:06;7.85;;;6.03;;
75062;SDS011;63981;51.052;13.754;2023-01-29T13:48:40;8.73;;;5.63;;
75062;SDS011;63981;51.052;13.754;2023-01-29T13:51:11;9.30;;;6.38;;
75062;SDS011;63981;51.052;13.754;2023-01-29T13:53:42;9.43;;;6.70;;
75062;SDS011;63981;51.052;13.754;2023-01-29T13:58:57;11.05;;;6.95;;
75062;SDS011;63981;51.052;13.754;2023-01-29T14:06:45;10.13;;;6.88;;
75062;SDS011;63981;51.052;13.754;2023-01-29T14:09:32;11.05;;;7.07;;
75062;SDS011;63981;51.052;13.754;2023-01-29T14:17:13;11.25;;;6.68;;
75062;SDS011;63981;51.052;13.754;2023-01-29T14:19:50;11.40;;;6.93;;
75062;SDS011;63981;51.052;13.754;2023-01-29T14:22:27;11.30;;;6.70;;
75062;SDS011;63981;51.052;13.754;2023-01-29T14:25:02;11.50;;;6.47;;
75062;SDS011;63981;51.052;13.754;2023-01-29T14:27:30;9.20;;;6.78;;
75062;SDS011;63981;51.052;13.754;2023-01-29T14:30:00;8.32;;;5.75;;
75062;SDS011;63981;51.052;13.754;2023-01-29T14:32:31;10.27;;;6.07;;
75062;SDS011;63981;51.052;13.754;2023-01-29T14:35:04;10.02;;;6.30;;
75062;SDS011;63981;51.052;13.754;2023-01-29T14:37:43;9.93;;;5.97;;
75062;SDS011;63981;51.052;13.754;2023-01-29T14:42:54;10.57;;;6.40;;
75062;SDS011;63981;51.052;13.754;2023-01-29T14:45:28;11.90;;;7.80;;
75062;SDS011;63981;51.052;13.754;2023-01-29T14:47:57;12.30;;;7.53;;
75062;SDS011;63981;51.052;13.754;2023-01-29T14:53:14;10.23;;;5.60;;
75062;SDS011;63981;51.052;13.754;2023-01-29T14:55:52;10.52;;;6.38;;
75062;SDS011;63981;51.052;13.754;2023-01-29T15:03:21;9.73;;;5.80;;
75062;SDS011;63981;51.052;13.754;2023-01-29T15:05:51;8.00;;;5.35;;
75062;SDS011;63981;51.052;13.754;2023-01-29T15:11:13;10.85;;;6.10;;
75062;SDS011;63981;51.052;13.754;2023-01-29T15:14:10;8.70;;;5.90;;
75062;SDS011;63981;51.052;13.754;2023-01-29T15:16:45;10.70;;;5.95;;
75062;SDS011;63981;51.052;13.754;2023-01-29T15:24:42;10.32;;;5.63;;
75062;SDS011;63981;51.052;13.754;2023-01-29T15:27:13;10.32;;;6.20;;
75062;SDS011;63981;51.052;13.754;2023-01-29T15:29:47;10.82;;;6.13;;
75062;SDS011;63981;51.052;13.754;2023-01-29T15:32:31;11.00;;;6.15;;
75062;SDS011;63981;51.052;13.754;2023-01-29T15:34:59;9.88;;;6.28;;
75062;SDS011;63981;51.052;13.754;2023-01-29T15:37:31;9.65;;;6.38;;
75062;SDS011;63981;51.052;13.754;2023-01-29T15:39:58;13.93;;;7.43;;
75062;SDS011;63981;51.052;13.754;2023-01-29T15:42:26;8.40;;;5.70;;
75062;SDS011;63981;51.052;13.754;2023-01-29T15:44:53;9.63;;;6.07;;
75062;SDS011;63981;51.052;13.754;2023-01-29T15:47:29;9.18;;;6.15;;
75062;SDS011;63981;51.052;13.754;2023-01-29T15:49:56;11.05;;;6.28;;
75062;SDS011;63981;51.052;13.754;2023-01-29T15:52:25;9.15;;;6.03;;
75062;SDS011;63981;51.052;13.754;2023-01-29T15:54:54;9.80;;;6.75;;
75062;SDS011;63981;51.052;13.754;2023-01-29T15:57:22;9.88;;;5.97;;
75062;SDS011;63981;51.052;13.754;2023-01-29T15:59:52;9.55;;;5.78;;
75062;SDS011;63981;51.052;13.754;2023-01-29T16:04:58;8.13;;;5.65;;
75062;SDS011;63981;51.052;13.754;2023-01-29T16:07:24;8.75;;;5.93;;
75062;SDS011;63981;51.052;13.754;2023-01-29T16:09:51;9.38;;;5.65;;
75062;SDS011;63981;51.052;13.754;2023-01-29T16:12:18;9.75;;;5.72;;
75062;SDS011;63981;51.052;13.754;2023-01-29T16:14:44;7.78;;;4.30;;
75062;SDS011;63981;51.052;13.754;2023-01-29T16:21:49;8.95;;;4.75;;
75062;SDS011;63981;51.052;13.754;2023-01-29T16:24:39;9.50;;;4.90;;
75062;SDS011;63981;51.052;13.754;2023-01-29T16:27:10;7.55;;;4.32;;
75062;SDS011;63981;51.052;13.754;2023-01-29T16:29:37;7.88;;;4.82;;
75062;SDS011;63981;51.052;13.754;2023-01-29T16:32:04;10.00;;;4.90;;
75062;SDS011;63981;51.052;13.754;2023-01-29T16:34:32;8.32;;;5.30;;
75062;SDS011;63981;51.052;13.754;2023-01-29T16:37:02;8.60;;;4.80;;
75062;SDS011;63981;51.052;13.754;2023-01-29T16:39:31;8.30;;;5.15;;
75062;SDS011;63981;51.052;13.754;2023-01-29T16:45:00;8.80;;;4.80;;
75062;SDS011;63981;51.052;13.754;2023-01-29T16:47:34;12.32;;;5.50;;
75062;SDS011;63981;51.052;13.754;2023-01-29T16:55:38;9.13;;;4.68;;
75062;SDS011;63981;51.052;13.754;2023-01-29T16:58:17;8.65;;;5.25;;
75062;SDS011;63981;51.052;13.754;2023-01-29T17:00:46;12.07;;;5.63;;
75062;SDS011;63981;51.052;13.754;2023-01-29T17:03:16;9.75;;;4.22;;
75062;SDS011;63981;51.052;13.754;2023-01-29T17:05:42;8.05;;;4.68;;
75062;SDS011;63981;51.052;13.754;2023-01-29T17:08:29;8.98;;;4.97;;
75062;SDS011;63981;51.052;13.754;2023-01-29T17:10:58;8.85;;;5.15;;
75062;SDS011;63981;51.052;13.754;2023-01-29T17:16:12;8.18;;;5.00;;
75062;SDS011;63981;51.052;13.754;2023-01-29T17:18:40;7.00;;;4.72;;
75062;SDS011;63981;51.052;13.754;2023-01-29T17:21:05;8.05;;;4.78;;
75062;SDS011;63981;51.052;13.754;2023-01-29T17:23:31;8.90;;;4.32;;
75062;SDS011;63981;51.052;13.754;2023-01-29T17:25:57;9.65;;;4.63;;
75062;SDS011;63981;51.052;13.754;2023-01-29T17:28:23;8.45;;;4.85;;
75062;SDS011;63981;51.052;13.754;2023-01-29T17:30:50;9.02;;;4.90;;
75062;SDS011;63981;51.052;13.754;2023-01-29T17:33:17;8.63;;;4.90;;
75062;SDS011;63981;51.052;13.754;2023-01-29T17:35:47;8.73;;;4.63;;
75062;SDS011;63981;51.052;13.754;2023-01-29T17:38:15;9.07;;;4.60;;
75062;SDS011;63981;51.052;13.754;2023-01-29T17:40:44;7.10;;;4.40;;
75062;SDS011;63981;51.052;13.754;2023-01-29T17:43:11;8.88;;;5.32;;
75062;SDS011;63981;51.052;13.754;2023-01-29T17:45:37;8.82;;;5.00;;
75062;SDS011;63981;51.052;13.754;2023-01-29T17:48:04;8.13;;;4.90;;
75062;SDS011;63981;51.052;13.754;2023-01-29T17:50:55;8.93;;;5.22;;
75062;SDS011;63981;51.052;13.754;2023-01-29T17:55:48;9.30;;;5.00;;
75062;SDS011;63981;51.052;13.754;2023-01-29T17:58:19;8.43;;;5.40;;
75062;SDS011;63981;51.052;13.754;2023-01-29T18:00:49;9.52;;;4.55;;
75062;SDS011;63981;51.052;13.754;2023-01-29T18:03:17;9.38;;;5.28;;
75062;SDS011;63981;51.052;13.754;2023-01-29T18:05:44;8.63;;;5.25;;
75062;SDS011;63981;51.052;13.754;2023-01-29T18:08:18;9.15;;;5.05;;
75062;SDS011;63981;51.052;13.754;2023-01-29T18:10:49;8.13;;;5.13;;
75062;SDS011;63981;51.052;13.754;2023-01-29T18:13:15;10.00;;;5.28;;
75062;SDS011;63981;51.052;13.754;2023-01-29T18:15:41;11.32;;;5.72;;
75062;SDS011;63981;51.052;13.754;2023-01-29T18:18:09;10.23;;;5.60;;
75062;SDS011;63981;51.052;13.754;2023-01-29T18:20:38;8.95;;;5.38;;
75062;SDS011;63981;51.052;13.754;2023-01-29T18:23:05;11.85;;;5.57;;
75062;SDS011;63981;51.052;13.754;2023-01-29T18:25:32;9.70;;;5.03;;
75062;SDS011;63981;51.052;13.754;2023-01-29T18:27:58;7.45;;;5.07;;
75062;SDS011;63981;51.052;13.754;2023-01-29T18:30:24;6.65;;;4.32;;
75062;SDS011;63981;51.052;13.754;2023-01-29T18:32:50;8.50;;;5.03;;
75062;SDS011;63981;51.052;13.754;2023-01-29T18:35:16;9.40;;;4.65;;
75062;SDS011;63981;51.052;13.754;2023-01-29T18:37:42;8.93;;;5.15;;
75062;SDS011;63981;51.052;13.754;2023-01-29T18:40:09;7.78;;;4.65;;
75062;SDS011;63981;51.052;13.754;2023-01-29T18:42:38;10.20;;;6.13;;
75062;SDS011;63981;51.052;13.754;2023-01-29T18:45:05;8.65;;;5.07;;
75062;SDS011;63981;51.052;13.754;2023-01-29T18:47:31;10.50;;;5.13;;
75062;SDS011;63981;51.052;13.754;2023-01-29T18:49:57;7.03;;;5.05;;
75062;SDS011;63981;51.052;13.754;2023-01-29T18:52:23;8.05;;;4.63;;
75062;SDS011;63981;51.052;13.754;2023-01-29T18:54:49;7.70;;;4.80;;
75062;SDS011;63981;51.052;13.754;2023-01-29T18:57:15;9.77;;;4.93;;